createdAt,value
2022-07-29T00:01:02.487Z,75.12
2022-07-29T00:03:29.765Z,75.18
2022-07-29T00:05:56.774Z,75.44
2022-07-29T00:08:23.884Z,75.06
2022-07-29T00:10:52.179Z,75.15
2022-07-29T00:13:19.024Z,75.11
2022-07-29T00:16:04.579Z,75.41
2022-07-29T00:18:33.054Z,75.29
2022-07-29T00:21:00.402Z,75.53
2022-07-29T00:23:27.282Z,75.54
2022-07-29T00:25:54.355Z,75.42
2022-07-29T00:28:21.395Z,75.57
2022-07-29T00:30:48.180Z,75.60
2022-07-29T00:33:14.997Z,75.73
2022-07-29T00:35:44.709Z,75.59
2022-07-29T00:38:17.750Z,75.74
2022-07-29T00:40:45.622Z,75.78
2022-07-29T00:43:14.632Z,75.83
2022-07-29T00:45:44.463Z,75.71
2022-07-29T00:48:11.845Z,75.56
2022-07-29T00:50:39.665Z,75.94
2022-07-29T00:53:08.330Z,76.09
2022-07-29T00:55:35.837Z,76.48
2022-07-29T00:58:03.783Z,76.60
2022-07-29T01:00:31.302Z,76.73
2022-07-29T01:02:58.870Z,76.93
2022-07-29T01:05:49.883Z,77.27
2022-07-29T01:08:17.226Z,77.25
2022-07-29T01:10:45.227Z,77.34
2022-07-29T01:13:12.920Z,77.47
2022-07-29T01:15:49.492Z,77.70
2022-07-29T01:18:25.208Z,77.96
2022-07-29T01:21:34.143Z,78.04
2022-07-29T01:24:41.054Z,78.31
2022-07-29T01:27:26.595Z,78.57
2022-07-29T01:30:00.730Z,78.75
2022-07-29T01:32:30.133Z,78.97
2022-07-29T01:34:59.599Z,79.00
2022-07-29T01:37:30.928Z,79.20
2022-07-29T01:40:00.054Z,79.25
2022-07-29T01:42:48.967Z,79.36
2022-07-29T01:45:35.403Z,79.41
2022-07-29T01:48:12.897Z,79.61
2022-07-29T01:50:58.621Z,79.68
2022-07-29T01:53:34.868Z,79.63
2022-07-29T01:56:07.691Z,80.00
2022-07-29T01:58:37.764Z,80.18
2022-07-29T02:01:06.339Z,80.23
2022-07-29T02:03:36.716Z,80.17
2022-07-29T02:06:04.540Z,80.17
2022-07-29T02:08:33.771Z,80.19
2022-07-29T02:11:04.318Z,80.05
2022-07-29T02:13:33.125Z,79.94
2022-07-29T02:16:03.231Z,79.98
2022-07-29T02:18:31.797Z,79.97
2022-07-29T02:21:01.061Z,80.04
2022-07-29T02:23:28.496Z,79.93
2022-07-29T02:26:00.146Z,79.94
2022-07-29T02:28:29.600Z,79.68
2022-07-29T02:31:03.324Z,79.88
2022-07-29T02:33:32.706Z,79.26
2022-07-29T02:36:02.633Z,79.06
2022-07-29T02:38:49.876Z,79.25
2022-07-29T02:41:21.030Z,79.13
2022-07-29T02:43:51.292Z,79.38
2022-07-29T02:46:29.781Z,79.03
2022-07-29T02:49:03.088Z,79.24
2022-07-29T02:51:43.858Z,79.46
2022-07-29T02:54:21.446Z,79.53
2022-07-29T02:56:50.047Z,79.54
2022-07-29T02:59:23.180Z,79.48
2022-07-29T03:01:51.335Z,79.70
2022-07-29T03:04:21.551Z,79.43
2022-07-29T03:06:51.427Z,79.31
2022-07-29T03:09:18.704Z,79.28
2022-07-29T03:11:49.769Z,79.00
2022-07-29T03:14:21.834Z,78.91
2022-07-29T03:16:50.254Z,78.80
2022-07-29T03:19:18.387Z,78.71
2022-07-29T03:21:45.466Z,78.44
2022-07-29T03:24:26.084Z,78.43
2022-07-29T03:26:53.168Z,78.68
2022-07-29T03:29:20.123Z,78.72
2022-07-29T03:31:46.993Z,78.59
2022-07-29T03:34:15.784Z,78.66
2022-07-29T03:36:42.946Z,78.59
2022-07-29T03:39:11.594Z,78.89
2022-07-29T03:41:40.062Z,78.61
2022-07-29T03:44:08.908Z,78.48
2022-07-29T03:46:36.863Z,78.43
2022-07-29T03:49:06.443Z,78.56
2022-07-29T03:51:34.369Z,78.47
2022-07-29T03:54:09.322Z,78.29
2022-07-29T03:56:41.883Z,78.25
2022-07-29T03:59:09.432Z,78.19
2022-07-29T04:01:37.432Z,78.33
2022-07-29T04:04:05.689Z,78.57
2022-07-29T04:06:43.270Z,78.61
2022-07-29T04:09:10.790Z,78.91
2022-07-29T04:12:01.448Z,78.95
2022-07-29T04:14:27.324Z,78.82
2022-07-29T04:16:54.137Z,79.04
2022-07-29T04:19:21.277Z,78.92
2022-07-29T04:21:48.094Z,79.03
2022-07-29T04:24:15.188Z,79.18
2022-07-29T04:26:42.345Z,79.10
2022-07-29T04:29:09.288Z,79.09
2022-07-29T04:31:36.143Z,78.92
2022-07-29T04:34:03.051Z,79.10
2022-07-29T04:36:30.231Z,78.96
2022-07-29T04:38:57.332Z,78.58
2022-07-29T04:41:32.858Z,78.51
2022-07-29T04:44:06.001Z,78.57
2022-07-29T04:46:34.874Z,78.50
2022-07-29T04:49:02.319Z,78.49
2022-07-29T04:51:29.326Z,78.42
2022-07-29T04:53:56.310Z,78.21
2022-07-29T04:56:23.280Z,77.68
2022-07-29T04:58:50.193Z,77.50
2022-07-29T05:01:17.058Z,77.24
2022-07-29T05:03:43.982Z,77.21
2022-07-29T05:06:10.841Z,76.92
2022-07-29T05:08:37.830Z,76.67
2022-07-29T05:11:12.189Z,76.63
2022-07-29T05:13:45.853Z,76.21
2022-07-29T05:16:14.908Z,76.14
2022-07-29T05:18:42.505Z,75.54
2022-07-29T05:21:09.266Z,75.51
2022-07-29T05:23:36.670Z,75.68
2022-07-29T05:26:03.581Z,75.59
2022-07-29T05:28:33.749Z,75.33
2022-07-29T05:31:00.596Z,75.10
2022-07-29T05:33:35.002Z,74.84
2022-07-29T05:36:07.995Z,75.16
2022-07-29T05:38:38.662Z,74.41
2022-07-29T05:41:06.800Z,74.13
2022-07-29T05:43:33.870Z,74.29
2022-07-29T05:46:01.384Z,73.89
2022-07-29T05:48:28.487Z,74.31
2022-07-29T05:50:55.801Z,74.30
2022-07-29T05:53:23.480Z,74.53
2022-07-29T05:55:51.212Z,74.29
2022-07-29T05:58:18.105Z,74.50
2022-07-29T06:00:45.585Z,74.72
2022-07-29T06:03:12.548Z,74.46
2022-07-29T06:05:39.403Z,74.28
2022-07-29T06:08:09.520Z,73.38
2022-07-29T06:10:36.892Z,73.34
2022-07-29T06:13:04.074Z,72.80
2022-07-29T06:15:31.665Z,73.21
2022-07-29T06:18:00.641Z,72.87
2022-07-29T06:20:31.459Z,72.63
2022-07-29T06:22:58.805Z,72.45
2022-07-29T06:25:25.763Z,72.38
2022-07-29T06:27:53.258Z,71.75
2022-07-29T06:30:20.701Z,71.48
2022-07-29T06:32:48.174Z,71.49
2022-07-29T06:35:39.490Z,71.62
2022-07-29T06:38:03.595Z,71.56
2022-07-29T06:40:54.670Z,70.70
2022-07-29T06:43:21.835Z,69.22
2022-07-29T06:45:50.074Z,69.52
2022-07-29T06:48:16.919Z,68.54
2022-07-29T06:50:44.206Z,67.54
2022-07-29T06:53:11.127Z,67.27
2022-07-29T06:55:38.297Z,67.03
2022-07-29T06:58:05.243Z,66.89
2022-07-29T07:00:32.127Z,65.64
2022-07-29T07:02:58.985Z,65.42
2022-07-29T07:05:25.976Z,65.49
2022-07-29T07:07:52.932Z,65.92
2022-07-29T07:10:19.974Z,65.22
2022-07-29T07:12:46.826Z,63.27
2022-07-29T07:15:13.690Z,63.30
2022-07-29T07:17:40.640Z,63.07
2022-07-29T07:20:08.369Z,63.96
2022-07-29T07:22:38.857Z,63.29
2022-07-29T07:25:06.529Z,64.48
2022-07-29T07:27:33.470Z,64.37
2022-07-29T07:30:00.476Z,63.76
2022-07-29T07:32:27.361Z,63.50
2022-07-29T07:34:54.864Z,63.09
2022-07-29T07:37:22.266Z,62.49
2022-07-29T07:39:49.873Z,62.44
2022-07-29T07:42:16.728Z,62.43
2022-07-29T07:45:10.999Z,62.68
2022-07-29T07:47:30.615Z,61.82
2022-07-29T07:50:01.612Z,60.84
2022-07-29T07:52:28.524Z,61.03
2022-07-29T07:54:55.567Z,61.06
2022-07-29T07:57:22.442Z,61.21
2022-07-29T07:59:49.477Z,60.10
2022-07-29T08:02:17.085Z,60.17
2022-07-29T08:04:44.130Z,59.55
2022-07-29T08:07:11.077Z,58.63
2022-07-29T08:09:38.113Z,59.12
2022-07-29T08:12:06.706Z,58.81
2022-07-29T08:14:34.497Z,57.42
2022-07-29T08:17:01.629Z,55.24
2022-07-29T08:19:28.721Z,56.56
2022-07-29T08:21:56.054Z,55.70
2022-07-29T08:24:42.156Z,55.22
2022-07-29T08:27:26.939Z,55.03
2022-07-29T08:29:57.018Z,54.13
2022-07-29T08:32:50.869Z,53.29
2022-07-29T08:35:10.984Z,52.55
2022-07-29T08:37:37.842Z,52.82
2022-07-29T08:40:05.132Z,52.96
2022-07-29T08:42:32.200Z,53.83
2022-07-29T08:44:59.772Z,52.80
2022-07-29T08:47:28.757Z,52.30
2022-07-29T08:49:55.804Z,52.30
2022-07-29T08:52:26.181Z,52.59
2022-07-29T08:54:54.117Z,53.72
2022-07-29T08:57:24.262Z,53.99
2022-07-29T08:59:55.869Z,51.66
2022-07-29T09:02:24.154Z,51.73
2022-07-29T09:04:51.570Z,50.92
2022-07-29T09:07:20.046Z,51.67
2022-07-29T09:09:47.890Z,51.75
2022-07-29T09:12:29.057Z,51.93
2022-07-29T09:14:57.108Z,51.41
2022-07-29T09:17:45.128Z,51.34
2022-07-29T09:20:21.186Z,51.40
2022-07-29T09:22:50.947Z,52.13
2022-07-29T09:25:34.703Z,51.96
2022-07-29T09:28:13.707Z,52.59
2022-07-29T09:30:54.634Z,52.42
2022-07-29T09:33:23.176Z,51.38
2022-07-29T09:36:09.894Z,52.31
2022-07-29T09:38:38.404Z,52.81
2022-07-29T09:41:09.013Z,52.54
2022-07-29T09:43:36.076Z,52.68
2022-07-29T09:46:15.906Z,52.62
2022-07-29T09:48:42.935Z,53.35
2022-07-29T09:51:28.320Z,52.53
2022-07-29T09:54:24.002Z,52.39
2022-07-29T09:56:51.643Z,52.67
2022-07-29T09:59:18.719Z,52.52
2022-07-29T10:01:47.958Z,53.12
2022-07-29T10:04:15.163Z,52.73
2022-07-29T10:07:05.225Z,52.39
2022-07-29T10:09:33.940Z,53.52
2022-07-29T10:12:10.182Z,53.95
2022-07-29T10:14:37.648Z,54.01
2022-07-29T10:17:06.958Z,53.30
2022-07-29T10:19:35.273Z,54.17
2022-07-29T10:22:05.087Z,53.59
2022-07-29T10:24:33.363Z,54.07
2022-07-29T10:27:02.704Z,54.34
2022-07-29T10:29:32.375Z,54.49
2022-07-29T10:32:22.754Z,54.15
2022-07-29T10:35:13.180Z,55.10
2022-07-29T10:37:55.026Z,54.80
2022-07-29T10:41:21.264Z,53.35
2022-07-29T10:43:51.400Z,52.40
2022-07-29T10:46:19.900Z,51.74
2022-07-29T10:49:15.627Z,51.07
2022-07-29T10:52:01.182Z,49.92
2022-07-29T10:54:37.425Z,49.37
2022-07-29T10:57:54.054Z,48.05
2022-07-29T11:00:29.560Z,47.90
2022-07-29T11:02:59.358Z,47.88
2022-07-29T11:05:32.256Z,47.04
2022-07-29T11:08:20.350Z,47.41
2022-07-29T11:10:54.340Z,47.02
2022-07-29T11:13:43.240Z,48.51
2022-07-29T11:16:10.237Z,48.72
2022-07-29T11:19:13.862Z,49.33
2022-07-29T11:21:55.096Z,49.30
2022-07-29T11:24:35.622Z,51.26
2022-07-29T11:27:13.546Z,54.17
2022-07-29T11:29:50.055Z,57.18
2022-07-29T11:32:22.776Z,58.92
2022-07-29T11:35:17.463Z,58.95
2022-07-29T11:37:52.275Z,60.62
2022-07-29T11:40:23.226Z,60.89
2022-07-29T11:42:52.434Z,59.90
2022-07-29T11:45:42.786Z,60.58
2022-07-29T11:48:28.774Z,60.21
2022-07-29T11:50:58.536Z,58.99
2022-07-29T11:53:26.014Z,58.40
2022-07-29T11:55:58.317Z,58.59
2022-07-29T11:58:26.367Z,58.17
2022-07-29T12:00:55.716Z,57.76
2022-07-29T12:03:34.991Z,57.68
2022-07-29T12:06:03.220Z,56.67
2022-07-29T12:08:30.868Z,56.00
2022-07-29T12:10:58.617Z,56.47
2022-07-29T12:13:31.223Z,55.35
2022-07-29T12:16:06.063Z,55.46
2022-07-29T12:18:33.371Z,55.12
2022-07-29T12:21:04.926Z,54.95
2022-07-29T12:23:34.859Z,54.35
2022-07-29T12:26:07.287Z,54.29
2022-07-29T12:28:39.812Z,54.00
2022-07-29T12:31:08.308Z,52.24
2022-07-29T12:33:36.264Z,52.11
2022-07-29T12:36:10.435Z,52.10
2022-07-29T12:38:41.932Z,51.29
2022-07-29T12:41:08.928Z,50.05
2022-07-29T12:43:36.056Z,48.52
2022-07-29T12:46:16.134Z,48.24
2022-07-29T12:48:44.677Z,46.21
2022-07-29T12:51:15.307Z,46.69
2022-07-29T12:53:42.668Z,46.43
2022-07-29T12:56:41.262Z,45.27
2022-07-29T12:59:13.564Z,45.19
2022-07-29T13:01:40.621Z,45.44
2022-07-29T13:04:07.676Z,45.40
2022-07-29T13:06:41.880Z,43.37
2022-07-29T13:09:12.794Z,44.53
2022-07-29T13:11:51.674Z,43.57
2022-07-29T13:14:32.841Z,43.40
2022-07-29T13:17:07.754Z,42.91
2022-07-29T13:19:41.578Z,42.96
2022-07-29T13:22:13.236Z,42.83
2022-07-29T13:24:48.393Z,42.81
2022-07-29T13:27:16.856Z,42.86
2022-07-29T13:29:44.111Z,43.23
2022-07-29T13:32:13.300Z,42.42
2022-07-29T13:34:41.828Z,43.19
2022-07-29T13:37:08.733Z,42.18
2022-07-29T13:39:35.736Z,41.67
2022-07-29T13:42:02.679Z,41.59
2022-07-29T13:44:29.518Z,41.75
2022-07-29T13:46:57.186Z,41.39
2022-07-29T13:49:24.531Z,41.41
2022-07-29T13:51:51.613Z,41.04
2022-07-29T13:54:18.598Z,41.62
2022-07-29T13:56:46.286Z,40.91
2022-07-29T13:59:14.059Z,41.19
2022-07-29T14:01:44.653Z,40.62
2022-07-29T14:04:12.692Z,40.69
2022-07-29T14:06:40.849Z,41.03
2022-07-29T14:09:09.942Z,40.54
2022-07-29T14:11:39.381Z,40.25
2022-07-29T14:14:06.609Z,40.26
2022-07-29T14:16:37.033Z,39.61
2022-07-29T14:19:06.355Z,39.96
2022-07-29T14:21:36.009Z,39.01
2022-07-29T14:24:05.159Z,39.69
2022-07-29T14:26:46.331Z,39.66
2022-07-29T14:29:13.886Z,40.08
2022-07-29T14:31:41.169Z,40.08
2022-07-29T14:34:08.419Z,39.66
2022-07-29T14:36:36.035Z,39.62
2022-07-29T14:39:03.617Z,40.79
2022-07-29T14:41:31.152Z,39.71
2022-07-29T14:44:04.188Z,39.63
2022-07-29T14:46:31.869Z,39.27
2022-07-29T14:48:59.478Z,39.29
2022-07-29T14:51:32.186Z,39.62
2022-07-29T14:53:59.966Z,39.29
2022-07-29T14:56:37.017Z,38.28
2022-07-29T14:59:04.889Z,36.49
2022-07-29T15:01:32.139Z,37.62
2022-07-29T15:04:00.006Z,36.68
2022-07-29T15:06:27.999Z,36.02
2022-07-29T15:08:55.304Z,35.62
2022-07-29T15:11:22.833Z,35.87
2022-07-29T15:13:49.875Z,35.98
2022-07-29T15:16:18.196Z,36.59
2022-07-29T15:18:45.059Z,36.41
2022-07-29T15:21:12.174Z,36.18
2022-07-29T15:23:39.861Z,36.15
2022-07-29T15:26:06.748Z,36.26
2022-07-29T15:28:34.135Z,36.57
2022-07-29T15:31:01.689Z,36.69
2022-07-29T15:33:29.132Z,37.20
2022-07-29T15:35:57.359Z,36.83
2022-07-29T15:38:28.555Z,37.13
2022-07-29T15:40:56.291Z,37.56
2022-07-29T15:43:24.645Z,36.89
2022-07-29T15:46:12.311Z,36.68
2022-07-29T15:48:40.851Z,36.30
2022-07-29T15:51:08.242Z,36.17
2022-07-29T15:53:35.580Z,38.73
2022-07-29T15:56:02.790Z,38.48
2022-07-29T15:58:30.801Z,39.13
2022-07-29T16:00:58.407Z,39.31
2022-07-29T16:03:26.192Z,39.18
2022-07-29T16:05:53.609Z,38.07
2022-07-29T16:08:21.715Z,38.22
2022-07-29T16:10:49.884Z,37.95
2022-07-29T16:13:17.816Z,38.39
2022-07-29T16:16:02.463Z,38.78
2022-07-29T16:18:30.743Z,39.46
2022-07-29T16:20:59.775Z,40.75
2022-07-29T16:23:27.089Z,40.20
2022-07-29T16:26:00.095Z,40.38
2022-07-29T16:28:29.432Z,40.47
2022-07-29T16:30:57.461Z,39.41
2022-07-29T16:33:24.877Z,40.74
2022-07-29T16:35:53.206Z,39.20
2022-07-29T16:38:21.482Z,38.45
2022-07-29T16:40:49.023Z,34.23
2022-07-29T16:43:17.076Z,30.57
2022-07-29T16:45:46.176Z,28.45
2022-07-29T16:48:14.987Z,28.98
2022-07-29T16:50:45.964Z,31.47
2022-07-29T16:53:13.272Z,33.55
2022-07-29T16:55:42.403Z,34.39
2022-07-29T16:58:10.702Z,36.17
2022-07-29T17:00:38.483Z,36.95
2022-07-29T17:03:05.972Z,36.50
2022-07-29T17:05:52.226Z,37.44
2022-07-29T17:08:21.228Z,38.19
2022-07-29T17:10:48.797Z,38.83
2022-07-29T17:13:16.426Z,39.50
2022-07-29T17:15:44.176Z,40.48
2022-07-29T17:18:12.468Z,40.38
2022-07-29T17:20:41.995Z,40.75
2022-07-29T17:23:09.747Z,40.96
2022-07-29T17:25:37.347Z,40.28
2022-07-29T17:28:04.841Z,41.52
2022-07-29T17:30:32.198Z,43.81
2022-07-29T17:33:00.211Z,44.12
2022-07-29T17:35:46.346Z,44.56
2022-07-29T17:38:14.073Z,45.61
2022-07-29T17:40:41.326Z,46.32
2022-07-29T17:43:09.537Z,47.07
2022-07-29T17:45:49.786Z,47.99
2022-07-29T17:48:19.447Z,49.69
2022-07-29T17:50:48.465Z,51.22
2022-07-29T17:53:16.762Z,52.53
2022-07-29T17:55:46.363Z,53.25
2022-07-29T17:58:13.899Z,53.84
2022-07-29T18:00:41.984Z,54.31
2022-07-29T18:03:09.604Z,54.54
2022-07-29T18:05:37.348Z,55.09
2022-07-29T18:08:05.083Z,55.66
2022-07-29T18:10:32.289Z,55.71
2022-07-29T18:13:00.028Z,55.78
2022-07-29T18:15:27.398Z,56.36
2022-07-29T18:17:57.326Z,56.41
2022-07-29T18:20:26.338Z,56.58
2022-07-29T18:22:53.480Z,56.69
2022-07-29T18:25:21.313Z,56.98
2022-07-29T18:27:48.507Z,57.07
2022-07-29T18:30:16.626Z,57.63
2022-07-29T18:32:59.047Z,58.15
2022-07-29T18:35:26.898Z,58.84
2022-07-29T18:38:02.168Z,58.75
2022-07-29T18:40:30.548Z,59.21
2022-07-29T18:42:57.933Z,60.11
2022-07-29T18:45:28.485Z,60.90
2022-07-29T18:47:57.439Z,61.71
2022-07-29T18:50:29.244Z,62.14
2022-07-29T18:52:59.097Z,62.53
2022-07-29T18:55:27.126Z,62.78
2022-07-29T18:57:56.692Z,63.23
2022-07-29T19:00:26.346Z,63.39
2022-07-29T19:02:53.562Z,63.68
2022-07-29T19:05:21.946Z,64.02
2022-07-29T19:07:49.408Z,64.59
2022-07-29T19:10:17.007Z,65.24
2022-07-29T19:12:44.307Z,66.09
2022-07-29T19:15:12.119Z,67.23
2022-07-29T19:17:39.869Z,68.18
2022-07-29T19:20:08.189Z,68.82
2022-07-29T19:22:35.170Z,69.71
2022-07-29T19:25:02.668Z,67.65
2022-07-29T19:27:29.834Z,66.63
2022-07-29T19:29:59.420Z,65.26
2022-07-29T19:32:26.976Z,64.29
2022-07-29T19:35:12.870Z,64.41
2022-07-29T19:37:39.815Z,65.53
2022-07-29T19:40:07.548Z,66.61
2022-07-29T19:42:35.212Z,67.25
2022-07-29T19:45:02.639Z,68.27
2022-07-29T19:47:29.560Z,68.69
2022-07-29T19:49:56.558Z,69.14
2022-07-29T19:52:23.772Z,69.72
2022-07-29T19:54:51.279Z,70.04
2022-07-29T19:57:18.273Z,70.49
2022-07-29T19:59:45.919Z,70.67
2022-07-29T20:02:13.441Z,71.07
2022-07-29T20:04:40.461Z,71.23
2022-07-29T20:07:07.879Z,71.31
2022-07-29T20:09:34.882Z,71.49
2022-07-29T20:12:02.062Z,71.47
2022-07-29T20:14:29.199Z,71.84
2022-07-29T20:16:56.234Z,72.20
2022-07-29T20:19:23.145Z,72.12
2022-07-29T20:21:52.050Z,71.66
2022-07-29T20:24:21.147Z,71.00
2022-07-29T20:26:48.807Z,69.85
2022-07-29T20:29:16.603Z,68.96
2022-07-29T20:31:43.646Z,68.11
2022-07-29T20:34:10.825Z,67.28
2022-07-29T20:36:38.171Z,66.91
2022-07-29T20:39:05.199Z,66.93
2022-07-29T20:41:34.026Z,66.77
2022-07-29T20:44:04.707Z,66.59
2022-07-29T20:46:31.707Z,66.74
2022-07-29T20:48:58.774Z,67.21
2022-07-29T20:51:26.457Z,66.98
2022-07-29T20:53:53.367Z,67.11
2022-07-29T20:56:20.860Z,67.21
2022-07-29T20:58:47.995Z,67.28
2022-07-29T21:01:15.245Z,67.39
2022-07-29T21:03:42.192Z,67.81
2022-07-29T21:06:09.322Z,68.05
2022-07-29T21:08:36.684Z,68.18
2022-07-29T21:11:04.371Z,68.30
2022-07-29T21:13:38.113Z,68.48
2022-07-29T21:16:14.908Z,68.81
2022-07-29T21:18:46.212Z,69.25
2022-07-29T21:21:17.085Z,69.58
2022-07-29T21:23:44.658Z,69.93
2022-07-29T21:26:13.030Z,70.30
2022-07-29T21:28:40.821Z,70.93
2022-07-29T21:31:13.494Z,71.36
2022-07-29T21:33:42.313Z,71.88
2022-07-29T21:38:57.203Z,72.78
2022-07-29T21:41:24.181Z,72.99
2022-07-29T21:43:51.551Z,73.52
2022-07-29T21:46:21.031Z,73.99
2022-07-29T21:48:51.698Z,74.36
2022-07-29T21:51:18.599Z,74.97
2022-07-29T21:53:45.735Z,75.19
2022-07-29T21:56:14.957Z,75.63
2022-07-29T21:58:42.349Z,75.74
2022-07-29T22:01:10.247Z,76.07
2022-07-29T22:03:37.279Z,76.80
2022-07-29T22:06:04.487Z,77.13
2022-07-29T22:08:31.511Z,77.33
2022-07-29T22:10:58.906Z,77.80
2022-07-29T22:13:25.949Z,78.20
2022-07-29T22:15:52.987Z,78.68
2022-07-29T22:18:21.380Z,79.31
2022-07-29T22:20:50.381Z,79.50
2022-07-29T22:23:17.330Z,80.17
2022-07-29T22:25:44.279Z,80.77
2022-07-29T22:28:11.282Z,81.30
2022-07-29T22:30:38.337Z,81.58
2022-07-29T22:33:05.252Z,82.31
2022-07-29T22:35:32.130Z,82.79
2022-07-29T22:37:59.426Z,83.41
2022-07-29T22:40:30.426Z,84.36
2022-07-29T22:42:57.878Z,85.42
2022-07-29T22:45:24.876Z,85.62
2022-07-29T22:47:57.426Z,86.04
2022-07-29T22:50:26.593Z,86.67
2022-07-29T22:52:53.540Z,87.07
2022-07-29T22:55:21.153Z,87.62
2022-07-29T22:57:48.244Z,87.88
2022-07-29T23:00:15.382Z,87.79
2022-07-29T23:02:42.313Z,88.05
2022-07-29T23:05:10.546Z,88.83
2022-07-29T23:07:37.877Z,88.86
2022-07-29T23:10:05.294Z,88.71
2022-07-29T23:12:32.106Z,88.58
2022-07-29T23:14:59.084Z,88.55
2022-07-29T23:17:26.150Z,88.63
2022-07-29T23:19:53.108Z,88.47
2022-07-29T23:22:19.943Z,89.10
2022-07-29T23:24:46.939Z,90.05
2022-07-29T23:27:13.763Z,90.19
2022-07-29T23:29:40.683Z,90.68
2022-07-29T23:32:07.732Z,91.37
2022-07-29T23:34:34.747Z,91.53
2022-07-29T23:37:02.479Z,91.40
2022-07-29T23:39:29.628Z,91.32
2022-07-29T23:41:56.649Z,91.39
2022-07-29T23:44:24.402Z,91.27
2022-07-29T23:46:51.807Z,90.90
2022-07-29T23:49:18.918Z,91.59
2022-07-29T23:51:46.108Z,92.02
2022-07-29T23:54:13.190Z,91.66
2022-07-29T23:56:40.465Z,91.77
2022-07-29T23:59:07.334Z,91.94
